Time;durP1;ratioP1;P1;durP2;ratioP2;P2;SDS_P1;SDS_P2;PMS_P1;PMS_P2;Temp;Humidity;BMP_temperature;BMP_pressure;BME280_temperature;BME280_humidity;BME280_pressure;Samples;Min_cycle;Max_cycle;Signal;HPM_P1;HPM_P2
2022/09/04 00:00:06;;;;;;;969.25;882.90;;;21.90;80.10;;;;;;4993896;28;20678;-81
2022/09/04 00:02:54;;;;;;;955.45;869.47;;;21.90;80.20;;;;;;4996921;28;20681;-80
2022/09/04 00:05:27;;;;;;;953.30;867.63;;;21.90;80.20;;;;;;4991172;28;20584;-81
2022/09/04 00:08:14;;;;;;;964.15;878.17;;;21.90;81.10;;;;;;4992093;28;20193;-80
2022/09/04 00:10:47;;;;;;;959.28;873.30;;;21.90;80.40;;;;;;4989787;28;20880;-80
2022/09/04 00:13:19;;;;;;;957.17;871.30;;;21.80;80.40;;;;;;4992195;28;20216;-81
2022/09/04 00:15:52;;;;;;;953.45;867.45;;;21.80;80.40;;;;;;4984146;28;20204;-81
2022/09/04 00:18:28;;;;;;;954.50;868.58;;;21.80;80.50;;;;;;4991089;28;20197;-81
2022/09/04 00:21:01;;;;;;;957.80;871.88;;;21.80;80.60;;;;;;4988335;28;20542;-81
2022/09/04 00:23:34;;;;;;;956.28;870.33;;;21.80;80.60;;;;;;4991663;28;20197;-81
2022/09/04 00:26:06;;;;;;;954.70;868.92;;;21.80;80.70;;;;;;4990626;28;20711;-81
2022/09/04 00:28:38;;;;;;;957.30;871.22;;;21.70;80.60;;;;;;4989165;28;20205;-82
2022/09/04 00:31:15;;;;;;;945.35;859.70;;;21.70;80.70;;;;;;4988386;28;20212;-82
2022/09/04 00:33:51;;;;;;;948.22;862.45;;;21.70;80.70;;;;;;4990989;28;20235;-81
2022/09/04 00:36:19;;;;;;;964.35;878.08;;;21.70;80.80;;;;;;4985919;28;20196;-81
2022/09/04 00:38:52;;;;;;;956.40;870.45;;;21.70;80.90;;;;;;4989810;28;20288;-81
2022/09/04 00:41:29;;;;;;;949.22;863.40;;;21.70;81.00;;;;;;4991699;28;20565;-82
2022/09/04 00:44:20;;;;;;;956.60;870.50;;;21.70;81.00;;;;;;4995275;28;20196;-81
2022/09/04 00:47:19;;;;;;;956.17;870.20;;;21.60;81.00;;;;;;4991544;28;20201;-81
2022/09/04 00:50:08;;;;;;;943.78;858.28;;;21.60;81.10;;;;;;4991286;28;20746;-82
2022/09/04 00:52:57;;;;;;;937.85;852.35;;;21.60;81.10;;;;;;4992272;28;20219;-81
2022/09/04 00:55:44;;;;;;;938.95;853.25;;;21.60;81.20;;;;;;4994245;28;20208;-81
2022/09/04 00:58:34;;;;;;;939.80;853.88;;;21.60;81.40;;;;;;4990479;28;20684;-81
2022/09/04 01:01:01;;;;;;;934.85;849.47;;;21.50;81.40;;;;;;4994670;28;20197;-81
2022/09/04 01:03:48;;;;;;;950.22;864.15;;;21.50;81.40;;;;;;4992452;28;20229;-80
2022/09/04 01:06:34;;;;;;;949.40;863.53;;;21.50;81.50;;;;;;4986457;28;20233;-81
2022/09/04 01:09:23;;;;;;;947.85;862.17;;;21.50;81.60;;;;;;4993702;28;20656;-81
2022/09/04 01:12:01;;;;;;;940.40;855.00;;;21.50;81.60;;;;;;4992954;28;20209;-80
2022/09/04 01:14:38;;;;;;;950.38;864.47;;;21.50;81.60;;;;;;4985755;28;20205;-81
2022/09/04 01:17:13;;;;;;;934.00;848.70;;;21.50;82.50;;;;;;4990800;28;20201;-81
2022/09/04 01:19:51;;;;;;;941.15;855.47;;;21.40;81.60;;;;;;4991567;28;20205;-82
2022/09/04 01:22:50;;;;;;;931.28;845.80;;;21.40;81.80;;;;;;4990430;28;20215;-81
2022/09/04 01:25:34;;;;;;;940.70;855.03;;;21.40;81.80;;;;;;4976884;28;20204;-81
2022/09/04 01:28:07;;;;;;;919.08;834.15;;;21.40;81.80;;;;;;4992956;28;20212;-81
2022/09/04 01:30:43;;;;;;;946.75;860.95;;;21.40;81.90;;;;;;4995590;28;20640;-80
2022/09/04 01:33:18;;;;;;;938.10;852.63;;;21.30;81.90;;;;;;4994601;28;20280;-81
2022/09/04 01:35:55;;;;;;;932.05;846.67;;;21.30;82.00;;;;;;4991440;28;20224;-81
2022/09/04 01:38:31;;;;;;;942.75;857.05;;;21.30;82.00;;;;;;4984787;28;20243;-81
2022/09/04 01:41:06;;;;;;;922.90;837.83;;;21.30;82.00;;;;;;4985821;28;20201;-81
2022/09/04 01:43:34;;;;;;;923.90;838.88;;;21.30;82.10;;;;;;4991872;28;20228;-80
2022/09/04 01:46:28;;;;;;;941.03;855.45;;;21.30;82.30;;;;;;4993625;28;20208;-81
2022/09/04 01:49:04;;;;;;;924.50;839.42;;;21.30;82.40;;;;;;4993353;28;20204;-81
2022/09/04 01:51:39;;;;;;;938.88;853.35;;;21.20;82.30;;;;;;4982873;28;20205;-81
2022/09/04 01:54:15;;;;;;;941.63;855.95;;;21.20;82.30;;;;;;4993466;28;20223;-81
2022/09/04 01:56:48;;;;;;;935.13;849.70;;;21.20;82.40;;;;;;4988150;28;20679;-80
2022/09/04 01:59:25;;;;;;;918.25;833.45;;;21.20;82.40;;;;;;4992745;28;20189;-80
2022/09/04 02:01:56;;;;;;;946.05;860.38;;;21.20;82.60;;;;;;4991536;28;20200;-81
2022/09/04 02:04:30;;;;;;;922.90;838.00;;;21.10;82.50;;;;;;4987697;28;20231;-81
2022/09/04 02:07:11;;;;;;;943.10;857.58;;;21.10;82.50;;;;;;4993580;28;20209;-81
2022/09/04 02:09:50;;;;;;;936.00;850.53;;;21.10;82.60;;;;;;4992336;28;20569;-78
2022/09/04 02:12:27;;;;;;;925.00;839.92;;;21.10;82.80;;;;;;4990664;28;20201;-78
2022/09/04 02:15:05;;;;;;;925.58;840.45;;;21.10;82.80;;;;;;4990483;28;20635;-78
2022/09/04 02:17:43;;;;;;;919.00;834.03;;;21.10;82.90;;;;;;4990904;28;20200;-81
2022/09/04 02:20:21;;;;;;;919.05;833.97;;;21.10;83.00;;;;;;4990596;28;20734;-81
2022/09/04 02:23:02;;;;;;;912.38;827.58;;;21.10;83.00;;;;;;4996688;28;20209;-81
2022/09/04 02:25:32;;;;;;;930.10;844.30;;;21.00;83.80;;;;;;4991365;28;20655;-81
2022/09/04 02:28:14;;;;;;;925.53;839.95;;;21.00;83.80;;;;;;4995003;28;20193;-81
2022/09/04 02:30:55;;;;;;;935.35;849.58;;;21.00;83.20;;;;;;4994651;28;20208;-81
2022/09/04 02:33:29;;;;;;;934.42;848.55;;;21.00;83.20;;;;;;4988596;28;20221;-82
2022/09/04 02:36:01;;;;;;;929.15;843.60;;;21.00;83.30;;;;;;4997338;28;20185;-81
2022/09/04 02:38:36;;;;;;;920.60;835.72;;;21.00;83.40;;;;;;4996158;28;20304;-80
2022/09/04 02:41:10;;;;;;;915.58;830.58;;;21.00;83.50;;;;;;4992135;28;20192;-80
2022/09/04 02:43:51;;;;;;;927.30;841.97;;;20.90;83.40;;;;;;4990751;28;20674;-80
2022/09/04 02:46:26;;;;;;;915.13;830.15;;;20.90;83.50;;;;;;4997314;28;20706;-80
2022/09/04 02:49:06;;;;;;;906.03;821.20;;;20.90;83.60;;;;;;4994896;28;20695;-80
2022/09/04 02:51:48;;;;;;;911.35;826.45;;;20.90;83.70;;;;;;4994574;28;20211;-80
2022/09/04 02:54:25;;;;;;;923.80;838.45;;;20.90;83.80;;;;;;4985100;28;20212;-80
2022/09/04 02:56:59;;;;;;;892.28;808.00;;;20.90;83.90;;;;;;4994360;28;20189;-81
2022/09/04 02:59:41;;;;;;;901.78;817.20;;;20.80;83.90;;;;;;4986815;28;20207;-80
2022/09/04 03:02:19;;;;;;;924.30;838.97;;;20.80;83.90;;;;;;4989630;28;20204;-81
2022/09/04 03:04:52;;;;;;;914.97;830.03;;;20.80;84.10;;;;;;4992641;28;20213;-81
2022/09/04 03:07:29;;;;;;;912.53;827.38;;;20.80;84.10;;;;;;4989863;28;20197;-80
2022/09/04 03:10:03;;;;;;;918.10;832.63;;;20.80;84.20;;;;;;4992893;28;20205;-81
2022/09/04 03:12:34;;;;;;;902.38;817.72;;;20.70;84.20;;;;;;4993028;28;20193;-81
2022/09/04 03:15:13;;;;;;;903.90;819.13;;;20.80;84.30;;;;;;4987854;28;20217;-81
2022/09/04 03:17:49;;;;;;;910.25;825.10;;;20.70;84.40;;;;;;4991629;28;20296;-82
2022/09/04 03:20:21;;;;;;;897.72;813.13;;;20.70;84.50;;;;;;4992539;28;20660;-81
2022/09/04 03:22:55;;;;;;;914.58;829.67;;;20.70;84.50;;;;;;5002476;28;20213;-81
2022/09/04 03:25:50;;;;;;;913.92;829.22;;;20.70;84.50;;;;;;4987012;28;20194;-81
2022/09/04 03:28:26;;;;;;;900.03;815.40;;;20.70;84.60;;;;;;4987661;28;20219;-81
2022/09/04 03:30:57;;;;;;;920.22;835.15;;;20.70;84.80;;;;;;4981591;28;20193;-80
2022/09/04 03:33:35;;;;;;;909.28;824.60;;;20.70;84.80;;;;;;4995485;28;20201;-82
2022/09/04 03:36:13;;;;;;;911.85;826.50;;;20.70;84.90;;;;;;4987542;28;20199;-81
2022/09/04 03:38:49;;;;;;;906.75;821.88;;;20.60;84.80;;;;;;4980715;28;20205;-81
2022/09/04 03:41:29;;;;;;;907.95;823.13;;;20.60;85.00;;;;;;4988654;28;20189;-80
2022/09/04 03:44:09;;;;;;;893.95;809.45;;;20.60;85.10;;;;;;4974498;28;20253;-81
2022/09/04 03:46:50;;;;;;;911.90;826.90;;;20.60;85.10;;;;;;4989044;28;20204;-80
2022/09/04 03:49:35;;;;;;;884.03;799.53;;;20.60;85.20;;;;;;4985120;28;20670;-81
2022/09/04 03:52:11;;;;;;;911.28;826.22;;;20.50;85.20;;;;;;4990205;28;20213;-81
2022/09/04 03:54:50;;;;;;;900.38;815.70;;;20.50;85.30;;;;;;4976803;28;20212;-81
2022/09/04 03:57:38;;;;;;;903.95;818.97;;;20.50;85.40;;;;;;4985493;28;20648;-81
2022/09/04 04:00:10;;;;;;;893.53;809.00;;;20.50;85.50;;;;;;4984127;28;20197;-80
2022/09/04 04:03:08;;;;;;;899.95;815.15;;;20.50;85.60;;;;;;4992764;28;20221;-80
2022/09/04 04:05:47;;;;;;;905.95;821.10;;;20.50;85.70;;;;;;4987827;28;20201;-81
2022/09/04 04:08:34;;;;;;;887.55;803.35;;;20.40;85.70;;;;;;4985619;28;20750;-80
2022/09/04 04:11:15;;;;;;;891.38;807.10;;;20.40;85.70;;;;;;4990347;28;20604;-81
2022/09/04 04:14:08;;;;;;;880.50;796.20;;;20.40;85.90;;;;;;4991269;28;20197;-81
2022/09/04 04:16:46;;;;;;;886.83;802.65;;;20.40;86.00;;;;;;4988347;28;20212;-81
2022/09/04 04:19:29;;;;;;;892.53;808.20;;;20.40;86.00;;;;;;4987639;28;20205;-81
2022/09/04 04:22:14;;;;;;;899.83;815.25;;;20.40;86.20;;;;;;5000934;28;20806;-80
2022/09/04 04:25:06;;;;;;;877.90;793.85;;;20.40;86.30;;;;;;4992548;28;20656;-81
2022/09/04 04:27:48;;;;;;;879.30;795.20;;;20.30;86.30;;;;;;4991118;28;20197;-80
2022/09/04 04:30:16;;;;;;;890.20;805.72;;;20.30;86.30;;;;;;4991705;28;20302;-80
2022/09/04 04:33:16;;;;;;;908.45;823.60;;;20.30;86.40;;;;;;4981996;28;20213;-81
2022/09/04 04:35:54;;;;;;;880.72;796.40;;;20.30;86.50;;;;;;4985312;28;20750;-80
2022/09/04 04:38:36;;;;;;;882.25;798.10;;;20.30;86.70;;;;;;4990276;28;20197;-80
2022/09/04 04:41:30;;;;;;;894.22;809.45;;;20.30;86.80;;;;;;4988362;28;20208;-81
2022/09/04 04:44:09;;;;;;;875.33;791.53;;;20.30;86.80;;;;;;4992467;28;20223;-80
2022/09/04 04:46:53;;;;;;;878.53;794.45;;;20.20;86.90;;;;;;4983821;28;20274;-80
2022/09/04 04:49:37;;;;;;;881.53;797.40;;;20.30;87.00;;;;;;4981077;28;20197;-81
2022/09/04 04:52:32;;;;;;;880.95;796.83;;;20.20;87.00;;;;;;4997483;28;20722;-80
2022/09/04 04:55:13;;;;;;;883.13;798.95;;;20.20;87.10;;;;;;4990824;28;20609;-81
2022/09/04 04:57:53;;;;;;;878.88;794.80;;;20.20;87.20;;;;;;4989483;28;20304;-81
2022/09/04 05:00:23;;;;;;;869.28;785.17;;;20.20;87.30;;;;;;4982613;28;20607;-80
2022/09/04 05:03:01;;;;;;;878.88;794.80;;;20.20;87.40;;;;;;4993146;28;20224;-80
2022/09/04 05:05:48;;;;;;;880.97;796.72;;;20.20;87.50;;;;;;4997060;28;20193;-80
2022/09/04 05:08:24;;;;;;;875.20;791.38;;;20.20;87.60;;;;;;4990332;28;20246;-82
2022/09/04 05:10:56;;;;;;;882.28;798.20;;;20.10;87.70;;;;;;4987199;28;20669;-81
2022/09/04 05:13:30;;;;;;;891.88;807.45;;;20.10;87.70;;;;;;4991948;28;20189;-81
2022/09/04 05:16:05;;;;;;;879.88;795.85;;;20.10;87.80;;;;;;4990671;28;22070;-80
2022/09/04 05:18:37;;;;;;;883.03;798.85;;;20.10;87.90;;;;;;4990643;28;20200;-80
2022/09/04 05:21:10;;;;;;;892.88;808.47;;;20.10;87.90;;;;;;4989595;28;20200;-82
2022/09/04 05:23:49;;;;;;;872.00;788.03;;;20.10;88.10;;;;;;4987289;28;20208;-80
2022/09/04 05:26:27;;;;;;;892.38;808.00;;;20.10;88.20;;;;;;4994154;28;20193;-80
2022/09/04 05:29:01;;;;;;;874.38;790.47;;;20.10;88.20;;;;;;4977369;28;20205;-81
2022/09/04 05:31:37;;;;;;;887.42;803.15;;;20.10;88.30;;;;;;4992364;28;20672;-81
2022/09/04 05:34:09;;;;;;;862.38;778.90;;;20.10;88.30;;;;;;4978842;28;20204;-80
2022/09/04 05:36:48;;;;;;;886.60;802.30;;;20.10;88.40;;;;;;4980004;28;20216;-81
2022/09/04 05:39:22;;;;;;;880.75;796.70;;;20.10;88.40;;;;;;4994831;28;20200;-80
2022/09/04 05:42:04;;;;;;;872.72;788.83;;;20.10;88.50;;;;;;4993344;28;20212;-80
2022/09/04 05:44:41;;;;;;;882.88;798.53;;;20.10;88.60;;;;;;4997926;28;20207;-80
2022/09/04 05:47:20;;;;;;;885.83;801.13;;;20.10;88.60;;;;;;5003689;28;20711;-80
2022/09/04 05:50:04;;;;;;;878.30;793.90;;;20.10;88.70;;;;;;4987136;28;20213;-80
2022/09/04 05:52:49;;;;;;;864.53;780.53;;;20.10;88.70;;;;;;4982405;28;20629;-81
2022/09/04 05:55:37;;;;;;;874.67;790.60;;;20.10;88.70;;;;;;4993941;28;20216;-81
2022/09/04 05:58:25;;;;;;;868.70;784.90;;;20.20;88.40;;;;;;4986118;28;20207;-80
2022/09/04 06:01:07;;;;;;;881.88;797.45;;;20.40;88.00;;;;;;4990244;28;20232;-80
2022/09/04 06:04:02;;;;;;;890.90;806.35;;;20.60;87.20;;;;;;4993959;28;20247;-80
2022/09/04 06:06:36;;;;;;;910.15;824.92;;;20.90;86.60;;;;;;4992320;28;20197;-80
2022/09/04 06:09:27;;;;;;;931.83;846.45;;;21.10;85.80;;;;;;4985117;28;20236;-80
2022/09/04 06:12:05;;;;;;;926.33;841.15;;;21.40;85.00;;;;;;4991937;28;20635;-80
2022/09/04 06:14:59;;;;;;;943.88;857.85;;;21.60;84.40;;;;;;4985189;28;20308;-80
2022/09/04 06:17:37;;;;;;;941.08;855.28;;;21.80;83.70;;;;;;4981688;28;20212;-81
2022/09/04 06:20:19;;;;;;;932.35;846.92;;;22.00;83.20;;;;;;4991876;28;20205;-81
2022/09/04 06:23:13;;;;;;;966.03;879.63;;;22.10;82.60;;;;;;4990596;28;20220;-81
2022/09/04 06:26:14;;;;;;;969.15;882.65;;;22.30;82.00;;;;;;4981637;28;20209;-82
2022/09/04 06:29:07;;;;;;;983.08;895.95;;;22.40;81.50;;;;;;4986995;28;20209;-80
2022/09/04 06:32:09;;;;;;;977.10;890.63;;;22.40;81.10;;;;;;4987680;28;20201;-80
2022/09/04 06:35:13;;;;;;;991.13;904.00;;;22.50;81.00;;;;;;4992328;28;20719;-80
2022/09/04 06:37:51;;;;;;;988.30;901.28;;;22.60;80.80;;;;;;4984195;28;20667;-81
2022/09/04 06:40:34;;;;;;;999.88;912.38;;;22.70;80.40;;;;;;4984262;28;20194;-81
2022/09/04 06:43:15;;;;;;;981.63;894.90;;;22.90;80.10;;;;;;4985904;28;20205;-81
2022/09/04 06:45:53;;;;;;;994.00;906.78;;;23.00;79.60;;;;;;4984065;28;20201;-81
2022/09/04 06:48:35;;;;;;;986.50;899.45;;;23.20;79.20;;;;;;4989525;28;20668;-82
2022/09/04 06:51:15;;;;;;;1008.63;921.10;;;23.30;78.90;;;;;;4990127;28;20197;-82
2022/09/04 06:53:55;;;;;;;1007.65;920.13;;;23.30;78.50;;;;;;4979209;28;20676;-81
2022/09/04 06:56:41;;;;;;;1005.25;917.70;;;23.40;78.40;;;;;;4989316;28;20224;-82
2022/09/04 06:59:40;;;;;;;1009.65;922.05;;;23.40;79.10;;;;;;4988780;28;20192;-81
2022/09/04 07:02:20;;;;;;;1017.85;930.03;;;23.40;78.30;;;;;;4963660;28;20213;-80
2022/09/04 07:05:02;;;;;;;1003.70;916.25;;;23.40;78.40;;;;;;4980006;28;20220;-82
2022/09/04 07:07:39;;;;;;;1025.30;937.22;;;23.40;78.40;;;;;;4992179;28;20201;-81
2022/09/04 07:10:10;;;;;;;1026.25;938.08;;;23.50;78.30;;;;;;4988326;28;20193;-81
2022/09/04 07:13:05;;;;;;;1031.47;943.05;;;23.60;78.00;;;;;;4992958;28;20193;-82
2022/09/04 07:15:46;;;;;;;1042.13;953.45;;;23.70;77.70;;;;;;4912810;28;20246;-82
2022/09/04 07:18:33;;;;;;;1028.80;940.67;;;23.80;77.40;;;;;;4961641;28;20220;-83
2022/09/04 07:21:11;;;;;;;1023.85;935.42;;;24.00;77.10;;;;;;4995707;28;20196;-83
2022/09/04 07:23:45;;;;;;;1037.93;949.38;;;24.10;76.70;;;;;;4997451;28;20212;-83
2022/09/04 07:26:27;;;;;;;1053.90;964.67;;;24.20;76.30;;;;;;4992123;28;20193;-83
2022/09/04 07:29:21;;;;;;;1054.25;964.55;;;24.30;76.00;;;;;;4987465;28;20244;-83
2022/09/04 07:32:00;;;;;;;1055.65;966.30;;;24.40;75.90;;;;;;4995056;28;20220;-82
2022/09/04 07:34:36;;;;;;;1066.28;976.50;;;24.50;75.70;;;;;;4983761;28;20193;-84
2022/09/04 07:37:13;;;;;;;1061.15;971.70;;;24.60;75.60;;;;;;4985668;28;20189;-83
2022/09/04 07:39:48;;;;;;;1073.32;983.35;;;24.60;75.30;;;;;;4983182;28;20759;-84
2022/09/04 07:42:26;;;;;;;1067.05;977.08;;;24.70;75.30;;;;;;4990712;28;20623;-84
2022/09/04 07:45:01;;;;;;;1070.35;980.42;;;24.70;75.20;;;;;;4979248;28;20247;-83
2022/09/04 07:47:34;;;;;;;1074.22;984.28;;;24.80;75.10;;;;;;4991363;28;20192;-83
2022/09/04 07:50:08;;;;;;;1076.88;986.45;;;24.80;75.10;;;;;;4994350;28;20231;-83
2022/09/04 07:52:51;;;;;;;1060.97;971.60;;;24.80;75.10;;;;;;5001086;28;20196;-83
2022/09/04 07:55:25;;;;;;;1078.55;988.50;;;24.80;75.00;;;;;;4981749;28;20217;-83
2022/09/04 07:58:19;;;;;;;1070.53;980.58;;;24.90;75.10;;;;;;4993068;28;20208;-83
2022/09/04 08:00:58;;;;;;;1074.85;984.92;;;24.90;75.00;;;;;;4990982;28;20288;-84
2022/09/04 08:03:39;;;;;;;1084.97;993.47;;;25.00;75.10;;;;;;5009777;28;20390;-84
2022/09/04 08:06:15;;;;;;;1084.80;993.38;;;25.00;75.00;;;;;;5009634;28;20666;-84
2022/09/04 08:09:13;;;;;;;1080.82;990.28;;;25.00;75.00;;;;;;4990499;28;20199;-83
2022/09/04 08:11:52;;;;;;;1084.50;993.17;;;25.10;75.00;;;;;;4990222;28;20221;-82
2022/09/04 08:14:29;;;;;;;1089.80;996.22;;;25.10;75.00;;;;;;4987070;28;20279;-83
2022/09/04 08:17:32;;;;;;;1081.05;990.95;;;25.10;74.90;;;;;;4996664;28;20220;-82
2022/09/04 08:20:08;;;;;;;1083.47;992.25;;;25.10;75.00;;;;;;4991090;28;20267;-82
2022/09/04 08:22:45;;;;;;;1078.72;988.53;;;25.10;75.50;;;;;;4988657;28;20211;-81
2022/09/04 08:25:23;;;;;;;1084.97;993.53;;;25.10;75.30;;;;;;4982993;28;20188;-82
2022/09/04 08:28:16;;;;;;;1092.25;997.38;;;25.20;75.30;;;;;;4987262;28;20190;-82
2022/09/04 08:30:53;;;;;;;1075.35;985.33;;;25.20;75.30;;;;;;4986305;28;20255;-81
2022/09/04 08:33:40;;;;;;;1093.45;998.78;;;25.20;75.30;;;;;;4990422;28;20450;-82
2022/09/04 08:36:17;;;;;;;1082.63;991.55;;;25.20;75.40;;;;;;5000170;28;20204;-82
2022/09/04 08:38:58;;;;;;;1078.43;988.20;;;25.20;75.30;;;;;;4994948;28;20640;-82
2022/09/04 08:42:03;;;;;;;1095.22;998.42;;;25.30;75.50;;;;;;4990974;28;20201;-82
2022/09/04 08:45:15;;;;;;;1082.75;991.85;;;25.30;75.50;;;;;;4995742;28;20275;-81
2022/09/04 08:48:08;;;;;;;1076.20;986.25;;;25.30;75.90;;;;;;4990080;28;20197;-82
2022/09/04 08:51:25;;;;;;;1092.75;997.67;;;25.30;76.40;;;;;;4987735;28;20201;-83
2022/09/04 08:54:30;;;;;;;1080.93;990.20;;;25.20;76.30;;;;;;4933380;28;20283;-82
2022/09/04 08:57:37;;;;;;;1094.05;998.22;;;25.20;76.00;;;;;;4984281;28;20220;-82
2022/09/04 09:00:09;;;;;;;1081.28;990.65;;;25.30;76.50;;;;;;4987219;28;20196;-82
2022/09/04 09:03:28;;;;;;;1086.57;994.50;;;25.30;76.60;;;;;;4985635;28;20214;-83
2022/09/04 09:06:28;;;;;;;1101.25;999.90;;;25.30;76.60;;;;;;4933845;29;20687;-82
2022/09/04 09:09:17;;;;;;;1097.95;999.28;;;25.30;77.20;;;;;;4996554;28;20199;-82
2022/09/04 09:12:46;;;;;;;1094.15;998.15;;;25.20;78.00;;;;;;4992939;28;20201;-83
2022/09/04 09:15:33;;;;;;;1079.75;989.75;;;25.20;77.40;;;;;;4994819;28;20215;-83
2022/09/04 09:18:02;;;;;;;1095.63;998.67;;;25.20;77.40;;;;;;5002459;28;20721;-82
2022/09/04 09:20:31;;;;;;;1080.38;990.10;;;25.20;78.10;;;;;;4989812;28;20653;-83
2022/09/04 09:23:19;;;;;;;1095.53;998.55;;;25.20;77.90;;;;;;5002879;28;20193;-82
2022/09/04 09:25:51;;;;;;;1095.80;997.80;;;25.20;78.60;;;;;;4976923;28;20289;-83
2022/09/04 09:28:53;;;;;;;1090.80;996.85;;;25.10;78.90;;;;;;4987427;28;20220;-83
2022/09/04 09:32:06;;;;;;;1083.97;992.92;;;25.10;78.30;;;;;;4990314;28;20207;-83
2022/09/04 09:35:08;;;;;;;1076.95;987.17;;;25.10;78.30;;;;;;4993686;28;20236;-83
2022/09/04 09:38:20;;;;;;;1065.07;975.80;;;25.10;78.90;;;;;;4998965;28;20275;-82
2022/09/04 09:41:17;;;;;;;1080.00;990.10;;;25.10;79.20;;;;;;4992315;28;20636;-83
2022/09/04 09:44:07;;;;;;;1076.78;987.00;;;25.10;79.60;;;;;;4966548;28;20204;-83
2022/09/04 09:47:08;;;;;;;1066.00;976.42;;;25.10;80.00;;;;;;4991593;28;20229;-83
2022/09/04 09:50:05;;;;;;;1071.32;981.78;;;25.10;79.50;;;;;;4931108;28;20204;-83
2022/09/04 09:53:24;;;;;;;1071.97;982.22;;;25.00;79.30;;;;;;4988308;28;20204;-83
2022/09/04 09:56:19;;;;;;;1072.38;982.75;;;25.00;79.70;;;;;;4936941;29;20785;-82
2022/09/04 09:59:21;;;;;;;1066.30;977.00;;;25.00;80.60;;;;;;4938224;29;20210;-83
2022/09/04 10:02:21;;;;;;;1072.85;983.10;;;25.00;80.30;;;;;;5000960;28;20223;-83
2022/09/04 10:05:26;;;;;;;1066.68;977.38;;;25.00;80.40;;;;;;4964153;28;20204;-82
2022/09/04 10:08:12;;;;;;;1077.20;987.40;;;25.00;81.00;;;;;;4993132;28;20197;-82
2022/09/04 10:10:58;;;;;;;1067.68;978.28;;;25.00;81.10;;;;;;4993880;28;20193;-82
2022/09/04 10:14:02;;;;;;;1090.53;996.90;;;25.00;81.30;;;;;;4987189;28;20198;-82
2022/09/04 10:16:59;;;;;;;1063.45;973.97;;;25.00;81.60;;;;;;4992990;28;20271;-83
2022/09/04 10:19:59;;;;;;;1060.63;971.70;;;25.00;82.10;;;;;;4992607;28;20193;-82
2022/09/04 10:22:56;;;;;;;1070.10;980.50;;;25.00;82.60;;;;;;4985534;28;20293;-83
2022/09/04 10:25:59;;;;;;;1089.00;996.30;;;25.00;82.40;;;;;;4982600;28;20208;-83
2022/09/04 10:29:10;;;;;;;1073.10;983.30;;;25.00;82.10;;;;;;4991221;28;20185;-82
2022/09/04 10:32:02;;;;;;;1061.22;971.60;;;25.00;82.60;;;;;;4999372;28;20455;-82
2022/09/04 10:34:41;;;;;;;1070.22;980.45;;;25.00;82.70;;;;;;4997393;28;20591;-83
2022/09/04 10:37:22;;;;;;;1083.85;992.13;;;24.90;83.10;;;;;;4996840;28;20220;-83
2022/09/04 10:43:00;;;;;;;1081.63;991.25;;;24.90;82.80;;;;;;4993984;28;20204;-81
2022/09/04 10:45:33;;;;;;;1078.88;988.85;;;24.90;83.30;;;;;;4990010;28;20198;-82
2022/09/04 10:48:28;;;;;;;1075.25;985.55;;;24.90;83.40;;;;;;4995492;28;20648;-82
2022/09/04 10:51:37;;;;;;;1072.90;983.25;;;24.90;83.20;;;;;;4986724;28;20208;-83
2022/09/04 10:54:43;;;;;;;1075.07;985.22;;;24.90;82.90;;;;;;4989038;28;20247;-81
2022/09/04 10:57:21;;;;;;;1058.18;969.15;;;24.90;83.60;;;;;;4985912;28;20221;-82
2022/09/04 11:00:05;;;;;;;1073.15;983.40;;;24.90;83.60;;;;;;4992341;28;20207;-82
2022/09/04 11:03:04;;;;;;;1066.13;976.78;;;24.90;83.70;;;;;;5009301;28;20571;-82
2022/09/04 11:06:12;;;;;;;1056.13;966.95;;;24.90;83.70;;;;;;4972125;28;20207;-81
2022/09/04 11:09:00;;;;;;;1070.75;981.03;;;24.90;84.00;;;;;;4973610;28;20201;-82
2022/09/04 11:11:49;;;;;;;1062.80;973.50;;;24.90;83.80;;;;;;4994043;28;20280;-82
2022/09/04 11:14:52;;;;;;;1070.93;981.47;;;24.90;83.90;;;;;;4993214;28;20261;-82
2022/09/04 11:17:43;;;;;;;1061.47;972.13;;;24.90;84.00;;;;;;4998466;28;20302;-83
2022/09/04 11:20:40;;;;;;;1069.60;980.05;;;24.90;84.10;;;;;;4995260;28;20197;-82
2022/09/04 11:23:45;;;;;;;1071.30;981.53;;;24.90;84.00;;;;;;4997102;28;20197;-83
2022/09/04 11:26:47;;;;;;;1072.85;982.92;;;24.90;84.30;;;;;;4989716;28;20276;-83
2022/09/04 11:29:40;;;;;;;1056.38;967.38;;;24.90;84.10;;;;;;5001426;28;20215;-82
2022/09/04 11:32:33;;;;;;;1067.60;978.10;;;24.90;83.90;;;;;;4979834;28;20243;-82
2022/09/04 11:35:28;;;;;;;1060.65;971.28;;;24.90;84.20;;;;;;4992564;28;20671;-82
2022/09/04 11:37:59;;;;;;;1074.85;985.10;;;24.90;84.30;;;;;;4995022;28;20215;-81
2022/09/04 11:41:14;;;;;;;1079.93;989.92;;;24.90;84.30;;;;;;4996189;28;20188;-81
2022/09/04 11:44:11;;;;;;;1062.53;973.25;;;25.00;84.50;;;;;;4987416;28;20202;-82
2022/09/04 11:47:17;;;;;;;1061.25;971.80;;;24.90;84.60;;;;;;4973176;28;20204;-81
2022/09/04 11:49:58;;;;;;;1075.13;985.47;;;24.90;84.30;;;;;;4986143;28;20201;-81
2022/09/04 11:52:46;;;;;;;1074.35;984.78;;;24.90;84.40;;;;;;4994825;28;20247;-81
2022/09/04 11:55:38;;;;;;;1064.28;974.83;;;24.90;84.50;;;;;;4989268;28;20256;-82
2022/09/04 11:58:39;;;;;;;1065.78;976.63;;;24.90;84.20;;;;;;4991331;28;20221;-82
2022/09/04 12:01:23;;;;;;;1071.80;981.88;;;24.90;84.70;;;;;;4982869;28;20629;-79
2022/09/04 12:04:30;;;;;;;1069.93;980.35;;;24.90;84.70;;;;;;4986311;28;20255;-81
2022/09/04 12:07:12;;;;;;;1055.35;966.30;;;24.90;84.80;;;;;;4935835;29;20202;-82
2022/09/04 12:10:07;;;;;;;1062.32;973.15;;;24.90;85.00;;;;;;4987032;28;20197;-82
2022/09/04 12:12:59;;;;;;;1072.43;982.78;;;24.90;84.80;;;;;;4995339;28;20228;-82
2022/09/04 12:15:57;;;;;;;1069.93;980.45;;;24.90;84.90;;;;;;4995908;28;20205;-80
2022/09/04 12:19:02;;;;;;;1070.65;980.80;;;24.90;85.30;;;;;;4990707;28;20533;-82
2022/09/04 12:22:07;;;;;;;1075.50;985.88;;;24.90;85.30;;;;;;4989362;28;20251;-82
2022/09/04 12:24:52;;;;;;;1072.85;983.20;;;24.90;85.40;;;;;;4969072;28;20205;-81
2022/09/04 12:27:57;;;;;;;1070.65;981.15;;;24.90;85.70;;;;;;4989653;28;20204;-82
2022/09/04 12:30:32;;;;;;;1062.85;973.22;;;24.80;85.40;;;;;;4984083;28;20194;-81
2022/09/04 12:33:34;;;;;;;1065.15;975.83;;;24.80;85.40;;;;;;5000221;28;20195;-81
2022/09/04 12:36:39;;;;;;;1073.63;983.78;;;24.90;85.40;;;;;;4999661;28;20572;-81
2022/09/04 12:39:31;;;;;;;1069.03;979.60;;;24.90;85.30;;;;;;4999401;28;20201;-81
2022/09/04 12:42:05;;;;;;;1070.57;981.05;;;24.90;85.40;;;;;;4994349;28;20211;-82
2022/09/04 12:44:43;;;;;;;1078.45;988.50;;;24.90;85.20;;;;;;4989103;28;20592;-82
2022/09/04 12:47:27;;;;;;;1066.07;976.72;;;24.90;85.20;;;;;;4994972;28;20648;-81
2022/09/04 12:50:18;;;;;;;1076.97;987.25;;;25.00;85.10;;;;;;4993964;28;20205;-81
2022/09/04 12:53:18;;;;;;;1057.35;968.47;;;25.00;85.10;;;;;;4996334;28;20264;-80
2022/09/04 12:55:52;;;;;;;1078.47;988.67;;;25.00;85.10;;;;;;4985565;28;20207;-81
2022/09/04 12:58:30;;;;;;;1086.22;994.80;;;25.00;85.20;;;;;;4994085;28;20228;-82
2022/09/04 13:01:09;;;;;;;1082.10;990.67;;;25.00;85.20;;;;;;4996658;28;20210;-81
2022/09/04 13:03:47;;;;;;;1073.35;983.67;;;25.00;85.00;;;;;;4990882;28;20233;-81
2022/09/04 13:06:26;;;;;;;1078.80;988.45;;;25.10;85.20;;;;;;4987992;28;20279;-81
2022/09/04 13:09:04;;;;;;;1076.18;986.42;;;25.10;85.10;;;;;;5002204;28;20223;-81
2022/09/04 13:11:43;;;;;;;1083.65;991.97;;;25.10;85.50;;;;;;4986664;28;20201;-82
2022/09/04 13:14:30;;;;;;;1086.88;995.03;;;25.10;85.40;;;;;;4985757;28;20196;-81
2022/09/04 13:17:02;;;;;;;1079.07;989.33;;;25.10;85.10;;;;;;4992047;28;20228;-81
2022/09/04 13:19:39;;;;;;;1084.03;993.40;;;25.10;85.10;;;;;;4992575;28;20705;-81
2022/09/04 13:22:16;;;;;;;1083.05;991.47;;;25.10;85.00;;;;;;4990795;28;20426;-81
2022/09/04 13:24:51;;;;;;;1086.93;993.97;;;25.10;85.10;;;;;;4993234;28;20201;-81
2022/09/04 13:27:33;;;;;;;1076.22;986.30;;;25.10;84.90;;;;;;4992297;28;20564;-82
2022/09/04 13:30:06;;;;;;;1080.45;990.40;;;25.20;85.00;;;;;;4993308;28;20203;-81